Time;durP1;ratioP1;P1;durP2;ratioP2;P2;SDS_P1;SDS_P2;PMS_P1;PMS_P2;Temp;Humidity;BMP_temperature;BMP_pressure;BME280_temperature;BME280_humidity;BME280_pressure;Samples;Min_cycle;Max_cycle;Signal;HPM_P1;HPM_P2
2021/05/29 00:07:58;;;;;;;4.60;3.45;;;;;;;19.12;46.61;101645.03;31449582;28;20029;-65
2021/05/29 00:22:59;;;;;;;5.28;3.35;;;;;;;19.10;46.72;101650.41;31458628;28;20044;-66
2021/05/29 00:38:00;;;;;;;5.47;3.00;;;;;;;19.08;46.58;101639.16;31459166;28;20028;-65
2021/05/29 00:53:01;;;;;;;5.05;3.15;;;;;;;19.07;46.38;101645.34;31481721;28;20048;-66
2021/05/29 01:08:03;;;;;;;4.82;3.15;;;;;;;19.04;46.57;101656.97;31483896;28;20036;-66
2021/05/29 01:23:04;;;;;;;6.05;3.20;;;;;;;19.03;46.59;101643.88;31466166;28;20048;-66
2021/05/29 01:38:05;;;;;;;4.25;2.95;;;;;;;19.00;46.33;101657.28;31608839;28;20039;-67
2021/05/29 01:53:06;;;;;;;4.70;3.20;;;;;;;18.98;46.34;101659.19;31617936;28;20096;-68
2021/05/29 02:08:08;;;;;;;4.60;2.60;;;;;;;18.95;46.53;101654.13;31502981;28;20082;-67
2021/05/29 02:23:09;;;;;;;4.05;2.83;;;;;;;18.94;46.29;101661.19;31483531;28;20044;-66
2021/05/29 02:38:11;;;;;;;5.07;2.80;;;;;;;18.94;46.58;101655.06;31622935;28;20085;-65
2021/05/29 02:53:13;;;;;;;5.75;3.10;;;;;;;18.93;46.31;101671.84;31620838;28;20036;-66
2021/05/29 03:08:15;;;;;;;4.10;3.10;;;;;;;18.92;46.48;101670.13;31621555;28;20020;-66
2021/05/29 03:23:16;;;;;;;4.43;2.60;;;;;;;18.91;46.31;101671.09;31617089;28;20101;-65
2021/05/29 03:38:18;;;;;;;3.85;2.70;;;;;;;18.94;46.30;101676.97;31492024;28;20033;-65
2021/05/29 03:53:19;;;;;;;4.25;2.78;;;;;;;18.95;46.13;101685.75;31486147;28;20033;-66
2021/05/29 04:08:20;;;;;;;3.53;2.58;;;;;;;18.94;46.10;101695.44;31365028;28;20033;-65
2021/05/29 04:23:22;;;;;;;4.93;2.60;;;;;;;18.99;45.87;101700.41;31367158;28;20662;-65
2021/05/29 04:38:23;;;;;;;4.03;2.75;;;;;;;19.03;45.79;101717.66;31613342;28;20032;-67
2021/05/29 04:53:24;;;;;;;4.05;2.60;;;;;;;19.06;45.62;101709.56;31611044;28;20077;-66
2021/05/29 05:08:25;;;;;;;4.05;2.90;;;;;;;19.09;45.66;101734.84;31621177;28;20054;-66
2021/05/29 05:23:26;;;;;;;4.93;2.90;;;;;;;19.08;45.60;101747.19;31630798;28;20102;-66
2021/05/29 05:38:27;;;;;;;4.95;3.25;;;;;;;19.08;45.69;101760.34;31506954;28;20029;-66
2021/05/29 05:53:30;;;;;;;5.18;3.38;;;;;;;19.11;45.61;101775.94;31504551;28;20032;-68
2021/05/29 06:08:31;;;;;;;5.03;3.42;;;;;;;19.15;45.46;101772.16;31380156;28;20024;-67
2021/05/29 06:23:32;;;;;;;5.68;3.72;;;;;;;19.18;45.42;101777.19;31412426;28;20036;-67
2021/05/29 06:38:33;;;;;;;5.75;4.20;;;;;;;19.27;45.11;101809.16;31542688;28;20062;-66
2021/05/29 06:53:40;;;;;;;6.85;4.60;;;;;;;19.33;45.03;101806.06;31486854;28;20040;-66
2021/05/29 07:08:41;;;;;;;6.13;4.28;;;;;;;19.37;45.01;101805.75;31470113;28;20020;-66
2021/05/29 07:23:43;;;;;;;5.63;4.38;;;;;;;19.61;44.65;101815.53;31483828;28;20106;-65
2021/05/29 07:38:44;;;;;;;6.03;4.18;;;;;;;19.75;44.11;101812.78;31482793;28;20388;-67
2021/05/29 07:53:45;;;;;;;6.68;4.40;;;;;;;20.36;42.65;101814.53;31471438;28;20040;-66
2021/05/29 08:08:46;;;;;;;7.40;4.00;;;;;;;20.64;42.07;101814.19;31451843;28;20036;-66
2021/05/29 08:23:48;;;;;;;5.93;4.10;;;;;;;20.71;42.02;101814.59;31468082;28;20112;-65
2021/05/29 08:38:49;;;;;;;6.43;4.25;;;;;;;20.85;41.55;101821.47;31466802;28;20078;-65
2021/05/29 08:53:56;;;;;;;5.47;4.43;;;;;;;20.98;41.40;101821.34;31465741;28;20479;-65
2021/05/29 09:09:03;;;;;;;6.45;3.92;;;;;;;21.08;41.23;101814.41;31457981;28;20028;-66
2021/05/29 09:24:14;;;;;;;5.53;4.50;;;;;;;21.18;41.01;101819.81;31498534;28;20122;-65
2021/05/29 09:39:19;;;;;;;5.65;4.10;;;;;;;21.20;40.95;101834.59;31465398;28;20552;-66
2021/05/29 09:54:20;;;;;;;5.45;3.88;;;;;;;21.46;40.43;101824.66;31467080;28;20091;-65
2021/05/29 10:09:21;;;;;;;5.50;4.05;;;;;;;21.52;40.31;101829.47;31455311;28;20470;-65
2021/05/29 10:24:24;;;;;;;5.43;3.92;;;;;;;21.56;40.27;101823.94;31487714;28;20037;-66
2021/05/29 10:39:25;;;;;;;5.47;4.00;;;;;;;21.68;40.29;101820.31;31458012;28;20044;-65
2021/05/29 10:54:26;;;;;;;7.43;3.85;;;;;;;21.65;42.00;101816.09;31471217;28;20036;-65
2021/05/29 11:09:30;;;;;;;9.13;4.15;;;;;;;21.71;42.36;101823.53;31444488;28;20437;-67
2021/05/29 11:24:33;;;;;;;8.63;4.15;;;;;;;21.75;42.37;101816.22;31474283;28;20044;-65
2021/05/29 11:39:34;;;;;;;7.80;5.00;;;;;;;21.58;42.00;101827.28;31453791;28;20041;-66
2021/05/29 11:54:36;;;;;;;7.18;5.25;;;;;;;21.58;41.81;101806.13;31433352;28;20029;-66
2021/05/29 12:09:42;;;;;;;8.35;5.05;;;;;;;21.45;41.86;101814.19;31455432;28;20028;-65
2021/05/29 12:24:43;;;;;;;9.50;5.57;;;;;;;21.48;41.49;101829.81;31465732;28;20563;-65
2021/05/29 12:39:58;;;;;;;7.63;5.22;;;;;;;21.22;41.87;101811.53;31466720;28;20028;-65
2021/05/29 12:54:59;;;;;;;6.18;4.78;;;;;;;21.06;41.68;101808.38;31447918;28;20028;-66
2021/05/29 13:25:17;;;;;;;8.77;4.60;;;;;;;21.30;41.65;101810.91;31443531;28;20048;-64
2021/05/29 13:40:18;;;;;;;5.80;4.50;;;;;;;21.21;42.02;101801.06;31461633;28;20040;-66
2021/05/29 13:55:19;;;;;;;8.43;5.15;;;;;;;21.15;41.71;101798.91;31488128;28;20063;-66
2021/05/29 14:10:20;;;;;;;11.52;5.40;;;;;;;20.85;41.41;101806.44;31468676;28;20021;-65
2021/05/29 14:25:21;;;;;;;6.45;4.32;;;;;;;20.73;41.63;101798.59;31466222;28;20040;-66
2021/05/29 14:40:22;;;;;;;7.47;4.78;;;;;;;20.59;42.08;101797.88;31482621;28;20033;-66
2021/05/29 14:55:24;;;;;;;6.05;4.10;;;;;;;20.47;42.33;101804.00;31375194;28;20029;-67
2021/05/29 15:10:28;;;;;;;5.95;4.38;;;;;;;20.47;42.25;101804.84;31372049;28;20041;-68
2021/05/29 15:25:31;;;;;;;5.68;4.03;;;;;;;20.48;42.36;101781.94;31394181;28;20039;-70
2021/05/29 15:40:32;;;;;;;7.65;4.28;;;;;;;20.39;42.79;101775.56;31508937;28;20394;-67
2021/05/29 15:55:33;;;;;;;7.15;4.57;;;;;;;20.48;43.22;101774.84;31422473;28;20039;-69
2021/05/29 16:10:34;;;;;;;6.18;4.35;;;;;;;20.49;43.59;101771.25;31438511;28;21242;-66
2021/05/29 16:25:36;;;;;;;7.95;5.13;;;;;;;20.18;42.61;101783.28;31474228;28;20145;-65
2021/05/29 16:40:37;;;;;;;6.95;5.35;;;;;;;19.96;42.68;101784.00;31464812;28;20025;-65
2021/05/29 16:55:38;;;;;;;6.78;4.70;;;;;;;19.83;43.03;101784.03;31478655;28;20547;-65
2021/05/29 17:10:39;;;;;;;6.20;4.65;;;;;;;19.79;43.76;101787.00;31483895;28;20029;-66
2021/05/29 17:25:40;;;;;;;7.05;5.10;;;;;;;19.92;43.43;101803.63;31502544;28;20048;-69
2021/05/29 17:40:42;;;;;;;6.05;5.07;;;;;;;19.98;44.11;101802.38;31481384;28;20473;-69
2021/05/29 17:55:44;;;;;;;7.28;5.05;;;;;;;19.98;45.14;101818.19;31478171;28;20114;-69
2021/05/29 18:10:45;;;;;;;6.75;5.47;;;;;;;20.00;44.72;101821.56;31459105;28;20127;-68
2021/05/29 18:25:46;;;;;;;7.50;4.90;;;;;;;20.01;44.69;101844.34;31446223;28;20060;-67
2021/05/29 18:40:47;;;;;;;5.88;4.28;;;;;;;19.85;42.24;101858.66;31463933;28;20045;-68
2021/05/29 18:55:49;;;;;;;6.88;4.90;;;;;;;19.74;41.79;101873.56;31413113;28;20398;-69
2021/05/29 19:10:50;;;;;;;5.65;3.97;;;;;;;19.66;41.37;101892.53;31425328;28;20020;-68
2021/05/29 19:26:05;;;;;;;6.47;4.45;;;;;;;19.60;42.13;101911.41;31414286;28;20411;-63
2021/05/29 19:41:08;;;;;;;7.45;5.60;;;;;;;19.41;41.80;101928.50;31435246;28;20439;-66
2021/05/29 20:11:40;;;;;;;6.20;4.50;;;;;;;19.52;42.12;101943.59;31453533;28;20475;-73
2021/05/29 20:26:44;;;;;;;7.75;4.50;;;;;;;19.53;42.32;101944.44;31460189;28;20045;-71
2021/05/29 20:41:46;;;;;;;7.53;4.43;;;;;;;19.53;42.81;101949.72;31449056;28;20029;-67
2021/05/29 20:56:49;;;;;;;7.38;4.80;;;;;;;19.56;43.04;101971.44;31368375;28;20068;-69
2021/05/29 21:11:50;;;;;;;6.70;4.50;;;;;;;19.59;43.35;101983.59;31336952;28;20089;-70
2021/05/29 21:26:51;;;;;;;6.00;3.85;;;;;;;19.60;43.38;102001.91;31329239;28;20117;-68
2021/05/29 21:41:52;;;;;;;5.10;3.88;;;;;;;19.61;43.53;102008.06;31338595;28;20025;-70
2021/05/29 21:56:53;;;;;;;5.40;3.85;;;;;;;19.60;43.68;102017.75;31413767;28;20650;-67
2021/05/29 22:12:08;;;;;;;4.32;3.40;;;;;;;19.60;43.77;102019.53;31373972;28;20430;-69
2021/05/29 22:42:30;;;;;;;4.57;2.70;;;;;;;19.34;38.31;102016.03;31375672;28;20148;-68
2021/05/29 22:57:31;;;;;;;3.78;2.50;;;;;;;19.18;38.19;102029.38;31340690;28;21017;-68
2021/05/29 23:12:32;;;;;;;4.10;2.70;;;;;;;19.11;37.76;102031.56;31369646;28;20031;-68
2021/05/29 23:27:33;;;;;;;5.68;2.78;;;;;;;19.04;37.58;102038.19;31379803;28;20124;-68
2021/05/29 23:42:34;;;;;;;3.80;2.72;;;;;;;19.09;39.73;102038.72;31354489;28;20482;-68
2021/05/29 23:57:35;;;;;;;4.70;2.60;;;;;;;19.11;40.46;102043.91;31358146;28;20086;-67
